메인 페이지
METAR-TAF:

METAR-TAF

공항 :

타이프, 사우디아라비아

위도: 21-29N, 경도: 040-33E, 고도: 1478m

현재 날씨관측

예보는 24분 전, 17:00시(UTC)에 발표되었습니다.
20kt
온도 31°C
습도 18%
기압 1019 hPa
시정 10km 이상
1500m 미만 상공 구름 및 적란운 없음

METAR: OETF 311700Z 28020KT CAVOK 31/04 Q1019 NOSIG

시각: 20:24 (17:24 UTC)

예보

예보는 6 시간 24분 전, 11:00시(UTC)에 발표되었습니다.
예보 대상 시간: 31일 12시부터 01일 18시까지 (UTC)
북서18kt
시정 10km 이상
고도 3000ft 상공 구름 조금
전환 중
31일 18시부터 31일 20시까지 (UTC)
10kt

TAF: OETF 311100Z 3112/0118 32018KT 9999 FEW030 BECMG 3118/3120 26010KT

4,000개 이상의 공항 관측 자료 및 예보 (METAR 및 TAF 보고).

지도상에서 검색 가능한 기상관측소가 노란 점과 빨간 점으로 표시되어 있습니다.

기상관측소 명을 보려면 표시 위로 마우스를 이동하세요.

날씨 관측과 예보를 보려면 클릭하세요.

지도 변경 : 확대하려면 엑스 표시가 있는 녹색 버튼, 축소하려면 빼기 표시가 있는 녹색 버튼, 다음 페이지의 지도를 보려면 녹색 화살표를 클릭하세요.


METAR-TAF: